sensor_id;sensor_type;location;lat;lon;timestamp;pressure;altitude;pressure_sealevel;temperature
45701;BMP280;36277;32.852;-116.998;2024-02-14T00:02:25;100042.81;;;25.29
45701;BMP280;36277;32.852;-116.998;2024-02-14T00:04:54;100028.38;;;25.33
45701;BMP280;36277;32.852;-116.998;2024-02-14T00:07:21;100038.78;;;25.38
45701;BMP280;36277;32.852;-116.998;2024-02-14T00:09:48;100050.31;;;25.41
45701;BMP280;36277;32.852;-116.998;2024-02-14T00:12:14;100047.16;;;25.44
45701;BMP280;36277;32.852;-116.998;2024-02-14T00:14:40;100060.34;;;25.49
45701;BMP280;36277;32.852;-116.998;2024-02-14T00:17:07;100057.72;;;25.41
45701;BMP280;36277;32.852;-116.998;2024-02-14T00:19:33;100055.72;;;24.74
45701;BMP280;36277;32.852;-116.998;2024-02-14T00:22:01;100063.50;;;24.64
45701;BMP280;36277;32.852;-116.998;2024-02-14T00:24:27;100066.75;;;24.74
45701;BMP280;36277;32.852;-116.998;2024-02-14T00:26:55;100078.19;;;24.92
45701;BMP280;36277;32.852;-116.998;2024-02-14T00:29:22;100071.06;;;25.04
45701;BMP280;36277;32.852;-116.998;2024-02-14T00:31:50;100080.72;;;25.14
45701;BMP280;36277;32.852;-116.998;2024-02-14T00:34:16;100089.50;;;25.24
45701;BMP280;36277;32.852;-116.998;2024-02-14T00:36:42;100087.13;;;24.94
45701;BMP280;36277;32.852;-116.998;2024-02-14T00:39:09;100082.16;;;24.20
45701;BMP280;36277;32.852;-116.998;2024-02-14T00:41:35;100086.50;;;23.94
45701;BMP280;36277;32.852;-116.998;2024-02-14T00:44:02;100097.59;;;24.00
45701;BMP280;36277;32.852;-116.998;2024-02-14T00:46:29;100090.41;;;24.20
45701;BMP280;36277;32.852;-116.998;2024-02-14T00:48:56;100099.28;;;24.36
45701;BMP280;36277;32.852;-116.998;2024-02-14T00:51:22;100100.13;;;24.51
45701;BMP280;36277;32.852;-116.998;2024-02-14T00:53:48;100103.00;;;24.64
45701;BMP280;36277;32.852;-116.998;2024-02-14T00:56:14;100104.56;;;24.73
45701;BMP280;36277;32.852;-116.998;2024-02-14T00:58:41;100109.09;;;24.81
45701;BMP280;36277;32.852;-116.998;2024-02-14T01:01:07;100118.56;;;24.93
45701;BMP280;36277;32.852;-116.998;2024-02-14T01:03:33;100121.00;;;24.81
45701;BMP280;36277;32.852;-116.998;2024-02-14T01:05:59;100120.88;;;24.68
45701;BMP280;36277;32.852;-116.998;2024-02-14T01:08:26;100110.63;;;24.27
45701;BMP280;36277;32.852;-116.998;2024-02-14T01:10:52;100118.63;;;24.22
45701;BMP280;36277;32.852;-116.998;2024-02-14T01:13:18;100120.88;;;24.33
45701;BMP280;36277;32.852;-116.998;2024-02-14T01:15:45;100125.50;;;24.47
45701;BMP280;36277;32.852;-116.998;2024-02-14T01:18:11;100130.13;;;24.61
45701;BMP280;36277;32.852;-116.998;2024-02-14T01:20:37;100131.06;;;24.68
45701;BMP280;36277;32.852;-116.998;2024-02-14T01:23:04;100129.84;;;24.77
45701;BMP280;36277;32.852;-116.998;2024-02-14T01:25:30;100128.69;;;24.86
45701;BMP280;36277;32.852;-116.998;2024-02-14T01:27:59;100136.84;;;24.94
45701;BMP280;36277;32.852;-116.998;2024-02-14T01:30:25;100134.97;;;25.01
45701;BMP280;36277;32.852;-116.998;2024-02-14T01:32:52;100142.28;;;25.08
45701;BMP280;36277;32.852;-116.998;2024-02-14T01:35:19;100137.66;;;25.15
45701;BMP280;36277;32.852;-116.998;2024-02-14T01:37:45;100147.75;;;25.23
45701;BMP280;36277;32.852;-116.998;2024-02-14T01:40:12;100154.16;;;25.29
45701;BMP280;36277;32.852;-116.998;2024-02-14T01:42:38;100156.50;;;25.32
45701;BMP280;36277;32.852;-116.998;2024-02-14T01:45:05;100157.81;;;25.36
45701;BMP280;36277;32.852;-116.998;2024-02-14T01:47:31;100168.25;;;25.41
45701;BMP280;36277;32.852;-116.998;2024-02-14T01:49:59;100174.03;;;25.46
45701;BMP280;36277;32.852;-116.998;2024-02-14T01:52:25;100171.09;;;25.47
45701;BMP280;36277;32.852;-116.998;2024-02-14T01:54:53;100181.03;;;25.42
45701;BMP280;36277;32.852;-116.998;2024-02-14T01:57:21;100174.75;;;25.27
45701;BMP280;36277;32.852;-116.998;2024-02-14T01:59:49;100178.75;;;25.04
45701;BMP280;36277;32.852;-116.998;2024-02-14T02:02:17;100179.97;;;24.95
45701;BMP280;36277;32.852;-116.998;2024-02-14T02:04:44;100185.81;;;25.06
45701;BMP280;36277;32.852;-116.998;2024-02-14T02:07:10;100190.16;;;25.15
45701;BMP280;36277;32.852;-116.998;2024-02-14T02:09:36;100184.69;;;25.22
45701;BMP280;36277;32.852;-116.998;2024-02-14T02:12:02;100189.22;;;25.29
45701;BMP280;36277;32.852;-116.998;2024-02-14T02:14:33;100193.47;;;25.31
45701;BMP280;36277;32.852;-116.998;2024-02-14T02:16:59;100194.56;;;25.37
45701;BMP280;36277;32.852;-116.998;2024-02-14T02:19:26;100204.34;;;25.33
45701;BMP280;36277;32.852;-116.998;2024-02-14T02:21:52;100208.25;;;25.45
45701;BMP280;36277;32.852;-116.998;2024-02-14T02:24:19;100204.44;;;25.46
45701;BMP280;36277;32.852;-116.998;2024-02-14T02:26:45;100211.06;;;25.51
45701;BMP280;36277;32.852;-116.998;2024-02-14T02:29:11;100209.16;;;25.52
45701;BMP280;36277;32.852;-116.998;2024-02-14T02:31:37;100216.19;;;25.54
45701;BMP280;36277;32.852;-116.998;2024-02-14T02:34:04;100220.66;;;25.55
45701;BMP280;36277;32.852;-116.998;2024-02-14T02:36:30;100220.63;;;25.49
45701;BMP280;36277;32.852;-116.998;2024-02-14T02:38:56;100218.13;;;25.54
45701;BMP280;36277;32.852;-116.998;2024-02-14T02:41:24;100220.19;;;25.45
45701;BMP280;36277;32.852;-116.998;2024-02-14T02:43:50;100224.31;;;24.93
45701;BMP280;36277;32.852;-116.998;2024-02-14T02:46:16;100226.97;;;24.80
45701;BMP280;36277;32.852;-116.998;2024-02-14T02:48:43;100224.44;;;24.85
45701;BMP280;36277;32.852;-116.998;2024-02-14T02:51:09;100218.34;;;24.90
45701;BMP280;36277;32.852;-116.998;2024-02-14T02:53:35;100237.53;;;24.98
45701;BMP280;36277;32.852;-116.998;2024-02-14T02:56:02;100230.56;;;25.02
45701;BMP280;36277;32.852;-116.998;2024-02-14T02:58:29;100229.13;;;25.06
45701;BMP280;36277;32.852;-116.998;2024-02-14T03:00:55;100232.53;;;25.08
45701;BMP280;36277;32.852;-116.998;2024-02-14T03:03:23;100232.38;;;25.09
45701;BMP280;36277;32.852;-116.998;2024-02-14T03:05:53;100244.91;;;25.12
45701;BMP280;36277;32.852;-116.998;2024-02-14T03:08:22;100249.56;;;25.11
45701;BMP280;36277;32.852;-116.998;2024-02-14T03:10:52;100247.00;;;25.10
45701;BMP280;36277;32.852;-116.998;2024-02-14T03:13:18;100253.88;;;25.14
45701;BMP280;36277;32.852;-116.998;2024-02-14T03:15:45;100256.66;;;25.14
45701;BMP280;36277;32.852;-116.998;2024-02-14T03:18:12;100259.03;;;25.17
45701;BMP280;36277;32.852;-116.998;2024-02-14T03:20:38;100255.19;;;25.18
45701;BMP280;36277;32.852;-116.998;2024-02-14T03:23:04;100257.31;;;25.16
45701;BMP280;36277;32.852;-116.998;2024-02-14T03:25:31;100262.22;;;25.20
45701;BMP280;36277;32.852;-116.998;2024-02-14T03:27:57;100263.09;;;25.21
45701;BMP280;36277;32.852;-116.998;2024-02-14T03:30:24;100267.56;;;25.22
45701;BMP280;36277;32.852;-116.998;2024-02-14T03:32:50;100268.19;;;25.24
45701;BMP280;36277;32.852;-116.998;2024-02-14T03:35:18;100275.19;;;25.20
45701;BMP280;36277;32.852;-116.998;2024-02-14T03:37:46;100270.97;;;25.24
45701;BMP280;36277;32.852;-116.998;2024-02-14T03:40:18;100275.66;;;25.23
45701;BMP280;36277;32.852;-116.998;2024-02-14T03:42:46;100274.81;;;25.23
45701;BMP280;36277;32.852;-116.998;2024-02-14T03:45:12;100271.84;;;25.24
45701;BMP280;36277;32.852;-116.998;2024-02-14T03:47:40;100279.91;;;25.26
45701;BMP280;36277;32.852;-116.998;2024-02-14T03:50:10;100276.09;;;25.27
45701;BMP280;36277;32.852;-116.998;2024-02-14T03:52:36;100276.09;;;25.27
45701;BMP280;36277;32.852;-116.998;2024-02-14T03:55:03;100278.03;;;25.26
45701;BMP280;36277;32.852;-116.998;2024-02-14T03:57:29;100286.75;;;25.29
45701;BMP280;36277;32.852;-116.998;2024-02-14T03:59:58;100293.81;;;25.32
45701;BMP280;36277;32.852;-116.998;2024-02-14T04:02:26;100295.31;;;25.34
45701;BMP280;36277;32.852;-116.998;2024-02-14T04:04:53;100306.38;;;25.34
45701;BMP280;36277;32.852;-116.998;2024-02-14T04:07:20;100314.44;;;25.36
45701;BMP280;36277;32.852;-116.998;2024-02-14T04:09:47;100312.75;;;25.35
45701;BMP280;36277;32.852;-116.998;2024-02-14T04:12:14;100311.88;;;25.34
45701;BMP280;36277;32.852;-116.998;2024-02-14T04:14:40;100302.94;;;25.32
45701;BMP280;36277;32.852;-116.998;2024-02-14T04:17:06;100312.94;;;25.33
45701;BMP280;36277;32.852;-116.998;2024-02-14T04:19:37;100327.63;;;25.34
45701;BMP280;36277;32.852;-116.998;2024-02-14T04:22:03;100335.25;;;25.32
45701;BMP280;36277;32.852;-116.998;2024-02-14T04:24:30;100327.16;;;25.30
45701;BMP280;36277;32.852;-116.998;2024-02-14T04:26:58;100331.63;;;25.31
45701;BMP280;36277;32.852;-116.998;2024-02-14T04:29:27;100334.13;;;25.27
45701;BMP280;36277;32.852;-116.998;2024-02-14T04:31:56;100335.16;;;25.26
45701;BMP280;36277;32.852;-116.998;2024-02-14T04:34:23;100346.22;;;25.26
45701;BMP280;36277;32.852;-116.998;2024-02-14T04:36:49;100353.22;;;25.22
45701;BMP280;36277;32.852;-116.998;2024-02-14T04:39:15;100353.38;;;25.20
45701;BMP280;36277;32.852;-116.998;2024-02-14T04:41:42;100360.16;;;25.18
45701;BMP280;36277;32.852;-116.998;2024-02-14T04:44:08;100355.88;;;25.15
45701;BMP280;36277;32.852;-116.998;2024-02-14T04:46:34;100356.75;;;25.16
45701;BMP280;36277;32.852;-116.998;2024-02-14T04:49:04;100351.88;;;25.18
45701;BMP280;36277;32.852;-116.998;2024-02-14T04:51:30;100360.91;;;25.12
45701;BMP280;36277;32.852;-116.998;2024-02-14T04:53:57;100360.91;;;25.12
45701;BMP280;36277;32.852;-116.998;2024-02-14T04:56:27;100360.91;;;25.12
45701;BMP280;36277;32.852;-116.998;2024-02-14T04:58:54;100366.81;;;25.09
45701;BMP280;36277;32.852;-116.998;2024-02-14T05:01:23;100366.38;;;25.05
45701;BMP280;36277;32.852;-116.998;2024-02-14T05:03:50;100372.94;;;25.04
45701;BMP280;36277;32.852;-116.998;2024-02-14T05:06:16;100367.59;;;25.03
45701;BMP280;36277;32.852;-116.998;2024-02-14T05:08:42;100371.41;;;25.02
45701;BMP280;36277;32.852;-116.998;2024-02-14T05:11:09;100369.69;;;25.01
45701;BMP280;36277;32.852;-116.998;2024-02-14T05:13:35;100375.22;;;25.01
45701;BMP280;36277;32.852;-116.998;2024-02-14T05:16:04;100368.84;;;25.00
45701;BMP280;36277;32.852;-116.998;2024-02-14T05:18:31;100372.66;;;24.99
45701;BMP280;36277;32.852;-116.998;2024-02-14T05:20:57;100374.97;;;24.96
45701;BMP280;36277;32.852;-116.998;2024-02-14T05:23:24;100378.28;;;24.91
45701;BMP280;36277;32.852;-116.998;2024-02-14T05:25:50;100374.84;;;24.89
45701;BMP280;36277;32.852;-116.998;2024-02-14T05:28:16;100375.81;;;24.82
45701;BMP280;36277;32.852;-116.998;2024-02-14T05:30:44;100376.69;;;24.82
45701;BMP280;36277;32.852;-116.998;2024-02-14T05:33:11;100376.50;;;24.84
45701;BMP280;36277;32.852;-116.998;2024-02-14T05:35:37;100380.50;;;24.81
45701;BMP280;36277;32.852;-116.998;2024-02-14T05:38:03;100380.69;;;24.80
45701;BMP280;36277;32.852;-116.998;2024-02-14T05:40:34;100386.88;;;24.82
45701;BMP280;36277;32.852;-116.998;2024-02-14T05:43:03;100384.31;;;24.80
45701;BMP280;36277;32.852;-116.998;2024-02-14T05:45:29;100385.53;;;24.78
45701;BMP280;36277;32.852;-116.998;2024-02-14T05:47:56;100391.06;;;24.78
45701;BMP280;36277;32.852;-116.998;2024-02-14T05:50:22;100395.34;;;24.80
45701;BMP280;36277;32.852;-116.998;2024-02-14T05:52:48;100389.53;;;24.75
45701;BMP280;36277;32.852;-116.998;2024-02-14T05:55:14;100393.81;;;24.78
45701;BMP280;36277;32.852;-116.998;2024-02-14T05:57:41;100398.22;;;24.72
45701;BMP280;36277;32.852;-116.998;2024-02-14T06:00:07;100404.31;;;24.68
45701;BMP280;36277;32.852;-116.998;2024-02-14T06:02:36;100405.66;;;24.72
45701;BMP280;36277;32.852;-116.998;2024-02-14T06:05:02;100401.63;;;24.74
45701;BMP280;36277;32.852;-116.998;2024-02-14T06:07:28;100402.88;;;24.72
45701;BMP280;36277;32.852;-116.998;2024-02-14T06:09:54;100412.22;;;24.71
45701;BMP280;36277;32.852;-116.998;2024-02-14T06:12:21;100408.41;;;24.72
45701;BMP280;36277;32.852;-116.998;2024-02-14T06:14:50;100406.50;;;24.72
45701;BMP280;36277;32.852;-116.998;2024-02-14T06:17:16;100408.41;;;24.72
45701;BMP280;36277;32.852;-116.998;2024-02-14T06:19:42;100398.00;;;24.74
45701;BMP280;36277;32.852;-116.998;2024-02-14T06:22:09;100396.28;;;24.73
45701;BMP280;36277;32.852;-116.998;2024-02-14T06:24:36;100398.41;;;24.71
45701;BMP280;36277;32.852;-116.998;2024-02-14T06:27:02;100397.38;;;24.72
45701;BMP280;36277;32.852;-116.998;2024-02-14T06:29:29;100400.13;;;24.72
45701;BMP280;36277;32.852;-116.998;2024-02-14T06:31:55;100404.56;;;24.73
45701;BMP280;36277;32.852;-116.998;2024-02-14T06:34:21;100399.06;;;24.73
45701;BMP280;36277;32.852;-116.998;2024-02-14T06:36:47;100408.41;;;24.72
45701;BMP280;36277;32.852;-116.998;2024-02-14T06:39:14;100413.72;;;24.73
45701;BMP280;36277;32.852;-116.998;2024-02-14T06:41:40;100408.41;;;24.72
45701;BMP280;36277;32.852;-116.998;2024-02-14T06:44:06;100411.16;;;24.72
45701;BMP280;36277;32.852;-116.998;2024-02-14T06:46:32;100413.25;;;24.70
45701;BMP280;36277;32.852;-116.998;2024-02-14T06:48:59;100411.53;;;24.69
45701;BMP280;36277;32.852;-116.998;2024-02-14T06:51:25;100399.84;;;24.67
45701;BMP280;36277;32.852;-116.998;2024-02-14T06:53:51;100402.78;;;24.65
45701;BMP280;36277;32.852;-116.998;2024-02-14T06:56:18;100404.88;;;24.63
45701;BMP280;36277;32.852;-116.998;2024-02-14T06:58:44;100404.03;;;24.63
45701;BMP280;36277;32.852;-116.998;2024-02-14T07:01:10;100406.97;;;24.61
45701;BMP280;36277;32.852;-116.998;2024-02-14T07:03:39;100408.22;;;24.59
45701;BMP280;36277;32.852;-116.998;2024-02-14T07:06:06;100405.44;;;24.59
45701;BMP280;36277;32.852;-116.998;2024-02-14T07:08:33;100404.78;;;24.57
45701;BMP280;36277;32.852;-116.998;2024-02-14T07:10:59;100406.69;;;24.56
45701;BMP280;36277;32.852;-116.998;2024-02-14T07:13:26;100402.22;;;24.55
45701;BMP280;36277;32.852;-116.998;2024-02-14T07:15:52;100403.25;;;24.54
45701;BMP280;36277;32.852;-116.998;2024-02-14T07:18:18;100403.44;;;24.53
45701;BMP280;36277;32.852;-116.998;2024-02-14T07:20:45;100400.00;;;24.51
45701;BMP280;36277;32.852;-116.998;2024-02-14T07:23:12;100401.06;;;24.50
45701;BMP280;36277;32.852;-116.998;2024-02-14T07:25:38;100402.09;;;24.49
45701;BMP280;36277;32.852;-116.998;2024-02-14T07:28:04;100394.88;;;24.48
45701;BMP280;36277;32.852;-116.998;2024-02-14T07:30:30;100396.09;;;24.45
45701;BMP280;36277;32.852;-116.998;2024-02-14T07:32:57;100389.91;;;24.43
45701;BMP280;36277;32.852;-116.998;2024-02-14T07:35:23;100383.72;;;24.41
45701;BMP280;36277;32.852;-116.998;2024-02-14T07:37:49;100387.34;;;24.42
45701;BMP280;36277;32.852;-116.998;2024-02-14T07:40:16;100392.00;;;24.41
45701;BMP280;36277;32.852;-116.998;2024-02-14T07:42:42;100403.22;;;24.40
45701;BMP280;36277;32.852;-116.998;2024-02-14T07:45:08;100405.31;;;24.38
45701;BMP280;36277;32.852;-116.998;2024-02-14T07:47:35;100408.25;;;24.36
45701;BMP280;36277;32.852;-116.998;2024-02-14T07:50:01;100404.81;;;24.34
45701;BMP280;36277;32.852;-116.998;2024-02-14T07:52:28;100403.97;;;24.34
45701;BMP280;36277;32.852;-116.998;2024-02-14T07:54:55;100397.78;;;24.32
45701;BMP280;36277;32.852;-116.998;2024-02-14T07:57:24;100398.47;;;24.34
45701;BMP280;36277;32.852;-116.998;2024-02-14T07:59:52;100407.09;;;24.31
45701;BMP280;36277;32.852;-116.998;2024-02-14T08:02:18;100403.88;;;24.27
45701;BMP280;36277;32.852;-116.998;2024-02-14T08:04:45;100399.41;;;24.26
45701;BMP280;36277;32.852;-116.998;2024-02-14T08:07:11;100405.97;;;24.25
45701;BMP280;36277;32.852;-116.998;2024-02-14T08:09:38;100410.59;;;24.25
45701;BMP280;36277;32.852;-116.998;2024-02-14T08:12:05;100411.66;;;24.24
45701;BMP280;36277;32.852;-116.998;2024-02-14T08:14:32;100411.84;;;24.22
45701;BMP280;36277;32.852;-116.998;2024-02-14T08:16:58;100408.91;;;24.24
45701;BMP280;36277;32.852;-116.998;2024-02-14T08:19:24;100406.13;;;24.24
45701;BMP280;36277;32.852;-116.998;2024-02-14T08:21:51;100413.38;;;24.25
45701;BMP280;36277;32.852;-116.998;2024-02-14T08:24:17;100404.44;;;24.23
45701;BMP280;36277;32.852;-116.998;2024-02-14T08:26:43;100400.81;;;24.22
45701;BMP280;36277;32.852;-116.998;2024-02-14T08:29:09;100397.03;;;24.23
45701;BMP280;36277;32.852;-116.998;2024-02-14T08:31:37;100393.38;;;24.23
45701;BMP280;36277;32.852;-116.998;2024-02-14T08:34:03;100397.19;;;24.22
45701;BMP280;36277;32.852;-116.998;2024-02-14T08:36:30;100394.44;;;24.22
45701;BMP280;36277;32.852;-116.998;2024-02-14T08:38:56;100389.13;;;24.20
45701;BMP280;36277;32.852;-116.998;2024-02-14T08:41:22;100388.06;;;24.21
45701;BMP280;36277;32.852;-116.998;2024-02-14T08:43:49;100382.56;;;24.21
45701;BMP280;36277;32.852;-116.998;2024-02-14T08:46:17;100386.84;;;24.24
45701;BMP280;36277;32.852;-116.998;2024-02-14T08:48:44;100383.41;;;24.22
45701;BMP280;36277;32.852;-116.998;2024-02-14T08:51:14;100383.81;;;24.19
45701;BMP280;36277;32.852;-116.998;2024-02-14T08:53:40;100385.53;;;24.20
45701;BMP280;36277;32.852;-116.998;2024-02-14T08:56:10;100389.31;;;24.19
45701;BMP280;36277;32.852;-116.998;2024-02-14T08:58:36;100384.66;;;24.19
45701;BMP280;36277;32.852;-116.998;2024-02-14T09:01:02;100385.91;;;24.17
45701;BMP280;36277;32.852;-116.998;2024-02-14T09:03:29;100387.59;;;24.18
45701;BMP280;36277;32.852;-116.998;2024-02-14T09:05:57;100387.59;;;24.18
45701;BMP280;36277;32.852;-116.998;2024-02-14T09:10:50;100391.41;;;24.17
45701;BMP280;36277;32.852;-116.998;2024-02-14T09:13:16;100389.03;;;24.14
45701;BMP280;36277;32.852;-116.998;2024-02-14T09:15:43;100392.44;;;24.16
45701;BMP280;36277;32.852;-116.998;2024-02-14T09:18:09;100391.78;;;24.14
45701;BMP280;36277;32.852;-116.998;2024-02-14T09:20:35;100388.34;;;24.12
45701;BMP280;36277;32.852;-116.998;2024-02-14T09:23:03;100393.00;;;24.12
45701;BMP280;36277;32.852;-116.998;2024-02-14T09:25:29;100389.41;;;24.11
45701;BMP280;36277;32.852;-116.998;2024-02-14T09:27:56;100385.75;;;24.11
45701;BMP280;36277;32.852;-116.998;2024-02-14T09:30:22;100395.06;;;24.10
45701;BMP280;36277;32.852;-116.998;2024-02-14T09:32:48;100383.22;;;24.09
45701;BMP280;36277;32.852;-116.998;2024-02-14T09:35:16;100382.53;;;24.07
45701;BMP280;36277;32.852;-116.998;2024-02-14T09:37:42;100386.16;;;24.08
45701;BMP280;36277;32.852;-116.998;2024-02-14T09:40:09;100387.22;;;24.07
45701;BMP280;36277;32.852;-116.998;2024-02-14T09:42:44;100384.94;;;24.10
45701;BMP280;36277;32.852;-116.998;2024-02-14T09:45:14;100384.81;;;24.04
45701;BMP280;36277;32.852;-116.998;2024-02-14T09:47:41;100391.19;;;24.04
45701;BMP280;36277;32.852;-116.998;2024-02-14T09:50:08;100391.56;;;24.01
45701;BMP280;36277;32.852;-116.998;2024-02-14T09:52:36;100388.41;;;24.04
45701;BMP280;36277;32.852;-116.998;2024-02-14T09:55:05;100385.00;;;24.02
45701;BMP280;36277;32.852;-116.998;2024-02-14T09:57:32;100386.03;;;24.01
45701;BMP280;36277;32.852;-116.998;2024-02-14T10:00:01;100396.22;;;24.01
45701;BMP280;36277;32.852;-116.998;2024-02-14T10:02:30;100393.47;;;24.01
45701;BMP280;36277;32.852;-116.998;2024-02-14T10:04:56;100391.09;;;23.98
45701;BMP280;36277;32.852;-116.998;2024-02-14T10:07:23;100399.53;;;23.96
45701;BMP280;36277;32.852;-116.998;2024-02-14T10:09:49;100395.06;;;23.95
45701;BMP280;36277;32.852;-116.998;2024-02-14T10:12:15;100394.00;;;23.96
45701;BMP280;36277;32.852;-116.998;2024-02-14T10:14:43;100402.28;;;23.96
45701;BMP280;36277;32.852;-116.998;2024-02-14T10:17:17;100400.19;;;23.98
45701;BMP280;36277;32.852;-116.998;2024-02-14T10:19:54;100402.00;;;23.91
45701;BMP280;36277;32.852;-116.998;2024-02-14T10:25:42;100411.19;;;23.84
45701;BMP280;36277;32.852;-116.998;2024-02-14T10:28:09;100410.81;;;23.87
45701;BMP280;36277;32.852;-116.998;2024-02-14T10:30:36;100412.53;;;23.88
45701;BMP280;36277;32.852;-116.998;2024-02-14T10:33:06;100405.50;;;23.85
45701;BMP280;36277;32.852;-116.998;2024-02-14T10:35:35;100408.25;;;23.85
45701;BMP280;36277;32.852;-116.998;2024-02-14T10:38:08;100413.13;;;23.75
45701;BMP280;36277;32.852;-116.998;2024-02-14T10:40:38;100406.75;;;23.83
45701;BMP280;36277;32.852;-116.998;2024-02-14T10:43:09;100414.06;;;23.90
45701;BMP280;36277;32.852;-116.998;2024-02-14T10:45:36;100415.69;;;23.99
45701;BMP280;36277;32.852;-116.998;2024-02-14T10:48:05;100414.59;;;24.08
45701;BMP280;36277;32.852;-116.998;2024-02-14T10:50:36;100412.06;;;24.21
45701;BMP280;36277;32.852;-116.998;2024-02-14T10:53:12;100410.59;;;24.25
45701;BMP280;36277;32.852;-116.998;2024-02-14T10:55:40;100419.69;;;24.33
45701;BMP280;36277;32.852;-116.998;2024-02-14T10:58:08;100421.50;;;24.41
45701;BMP280;36277;32.852;-116.998;2024-02-14T11:00:37;100435.22;;;24.49
45701;BMP280;36277;32.852;-116.998;2024-02-14T11:03:04;100432.56;;;24.55
45701;BMP280;36277;32.852;-116.998;2024-02-14T11:05:31;100425.06;;;24.64
45701;BMP280;36277;32.852;-116.998;2024-02-14T11:08:08;100437.22;;;24.69
45701;BMP280;36277;32.852;-116.998;2024-02-14T11:10:37;100435.22;;;24.78
45701;BMP280;36277;32.852;-116.998;2024-02-14T11:13:04;100433.63;;;24.83
45701;BMP280;36277;32.852;-116.998;2024-02-14T11:15:36;100430.28;;;24.88
45701;BMP280;36277;32.852;-116.998;2024-02-14T11:18:06;100433.72;;;24.90
45701;BMP280;36277;32.852;-116.998;2024-02-14T11:20:36;100431.50;;;24.85
45701;BMP280;36277;32.852;-116.998;2024-02-14T11:23:07;100430.66;;;24.85
45701;BMP280;36277;32.852;-116.998;2024-02-14T11:25:37;100432.28;;;24.79
45701;BMP280;36277;32.852;-116.998;2024-02-14T11:28:18;100432.97;;;24.81
45701;BMP280;36277;32.852;-116.998;2024-02-14T11:30:47;100433.25;;;24.72
45701;BMP280;36277;32.852;-116.998;2024-02-14T11:33:19;100443.22;;;24.73
45701;BMP280;36277;32.852;-116.998;2024-02-14T11:35:47;100446.38;;;24.70
45701;BMP280;36277;32.852;-116.998;2024-02-14T11:38:17;100445.88;;;24.66
45701;BMP280;36277;32.852;-116.998;2024-02-14T11:40:44;100452.44;;;24.65
45701;BMP280;36277;32.852;-116.998;2024-02-14T11:43:18;100450.75;;;24.64
45701;BMP280;36277;32.852;-116.998;2024-02-14T11:45:46;100446.84;;;24.59
45701;BMP280;36277;32.852;-116.998;2024-02-14T11:48:16;100448.94;;;24.57
45701;BMP280;36277;32.852;-116.998;2024-02-14T11:50:44;100447.78;;;24.51
45701;BMP280;36277;32.852;-116.998;2024-02-14T11:53:12;100444.16;;;24.51
45701;BMP280;36277;32.852;-116.998;2024-02-14T11:55:39;100454.72;;;24.47
45701;BMP280;36277;32.852;-116.998;2024-02-14T11:58:10;100454.03;;;24.45
45701;BMP280;36277;32.852;-116.998;2024-02-14T12:00:41;100449.56;;;24.44
45701;BMP280;36277;32.852;-116.998;2024-02-14T12:03:11;100448.22;;;24.40
45701;BMP280;36277;32.852;-116.998;2024-02-14T12:05:38;100456.03;;;24.37
45701;BMP280;36277;32.852;-116.998;2024-02-14T12:08:07;100459.63;;;24.37
45701;BMP280;36277;32.852;-116.998;2024-02-14T12:10:35;100462.09;;;24.32
45701;BMP280;36277;32.852;-116.998;2024-02-14T12:13:21;100448.47;;;24.31
45701;BMP280;36277;32.852;-116.998;2024-02-14T12:15:49;100448.00;;;24.27
45701;BMP280;36277;32.852;-116.998;2024-02-14T12:18:18;100449.22;;;24.25
45701;BMP280;36277;32.852;-116.998;2024-02-14T12:20:44;100444.97;;;24.22
45701;BMP280;36277;32.852;-116.998;2024-02-14T12:23:18;100454.94;;;24.23
45701;BMP280;36277;32.852;-116.998;2024-02-14T12:25:45;100454.16;;;24.15
45701;BMP280;36277;32.852;-116.998;2024-02-14T12:28:19;100462.06;;;24.18
45701;BMP280;36277;32.852;-116.998;2024-02-14T12:33:14;100472.97;;;24.12
45701;BMP280;36277;32.852;-116.998;2024-02-14T12:35:50;100474.50;;;24.14
45701;BMP280;36277;32.852;-116.998;2024-02-14T12:38:19;100476.09;;;24.09
45701;BMP280;36277;32.852;-116.998;2024-02-14T12:40:45;100482.19;;;24.04
45701;BMP280;36277;32.852;-116.998;2024-02-14T12:43:13;100482.84;;;24.06
45701;BMP280;36277;32.852;-116.998;2024-02-14T12:45:41;100488.72;;;24.03
45701;BMP280;36277;32.852;-116.998;2024-02-14T12:48:09;100487.00;;;24.02
45701;BMP280;36277;32.852;-116.998;2024-02-14T12:50:36;100491.19;;;23.98
45701;BMP280;36277;32.852;-116.998;2024-02-14T12:53:10;100491.56;;;23.95
45701;BMP280;36277;32.852;-116.998;2024-02-14T12:55:36;100502.97;;;23.92
45701;BMP280;36277;32.852;-116.998;2024-02-14T12:58:03;100497.44;;;23.92
45701;BMP280;36277;32.852;-116.998;2024-02-14T13:00:29;100502.28;;;23.90
45701;BMP280;36277;32.852;-116.998;2024-02-14T13:02:58;100507.13;;;23.88
45701;BMP280;36277;32.852;-116.998;2024-02-14T13:05:25;100514.53;;;23.88
45701;BMP280;36277;32.852;-116.998;2024-02-14T13:07:51;100507.50;;;23.85
45701;BMP280;36277;32.852;-116.998;2024-02-14T13:10:18;100515.09;;;23.83
45701;BMP280;36277;32.852;-116.998;2024-02-14T13:12:44;100508.88;;;23.81
45701;BMP280;36277;32.852;-116.998;2024-02-14T13:15:11;100513.72;;;23.79
45701;BMP280;36277;32.852;-116.998;2024-02-14T13:17:37;100516.69;;;23.78
45701;BMP280;36277;32.852;-116.998;2024-02-14T13:20:04;100521.28;;;23.77
45701;BMP280;36277;32.852;-116.998;2024-02-14T13:22:31;100518.22;;;23.72
45701;BMP280;36277;32.852;-116.998;2024-02-14T13:24:58;100521.53;;;23.68
45701;BMP280;36277;32.852;-116.998;2024-02-14T13:27:26;100506.22;;;23.65
45701;BMP280;36277;32.852;-116.998;2024-02-14T13:29:52;100517.78;;;23.61
45701;BMP280;36277;32.852;-116.998;2024-02-14T13:32:19;100509.84;;;23.58